sensor_id;sensor_type;location;lat;lon;timestamp;temperature;humidity
4425;DHT22;2225;53.568;13.266;2024-01-27T00:01:28;9.20;93.00
4425;DHT22;2225;53.568;13.266;2024-01-27T00:03:55;9.20;93.00
4425;DHT22;2225;53.568;13.266;2024-01-27T00:06:23;9.20;93.10
4425;DHT22;2225;53.568;13.266;2024-01-27T00:08:50;9.20;93.10
4425;DHT22;2225;53.568;13.266;2024-01-27T00:11:17;9.20;93.20
4425;DHT22;2225;53.568;13.266;2024-01-27T00:13:45;9.20;93.20
4425;DHT22;2225;53.568;13.266;2024-01-27T00:16:12;9.20;93.30
4425;DHT22;2225;53.568;13.266;2024-01-27T00:18:39;9.20;93.20
4425;DHT22;2225;53.568;13.266;2024-01-27T00:21:06;9.20;93.40
4425;DHT22;2225;53.568;13.266;2024-01-27T00:23:33;9.20;93.40
4425;DHT22;2225;53.568;13.266;2024-01-27T00:26:01;9.20;93.40
4425;DHT22;2225;53.568;13.266;2024-01-27T00:28:28;9.20;93.40
4425;DHT22;2225;53.568;13.266;2024-01-27T00:30:55;9.20;93.40
4425;DHT22;2225;53.568;13.266;2024-01-27T00:33:22;9.10;93.40
4425;DHT22;2225;53.568;13.266;2024-01-27T00:35:49;9.10;93.50
4425;DHT22;2225;53.568;13.266;2024-01-27T00:38:16;9.10;93.60
4425;DHT22;2225;53.568;13.266;2024-01-27T00:40:43;9.00;93.60
4425;DHT22;2225;53.568;13.266;2024-01-27T00:43:10;9.00;93.50
4425;DHT22;2225;53.568;13.266;2024-01-27T00:45:38;9.00;93.70
4425;DHT22;2225;53.568;13.266;2024-01-27T00:48:05;9.00;93.70
4425;DHT22;2225;53.568;13.266;2024-01-27T00:50:33;9.00;93.80
4425;DHT22;2225;53.568;13.266;2024-01-27T00:53:00;9.00;93.80
4425;DHT22;2225;53.568;13.266;2024-01-27T00:55:27;9.00;93.80
4425;DHT22;2225;53.568;13.266;2024-01-27T00:57:53;9.00;93.90
4425;DHT22;2225;53.568;13.266;2024-01-27T01:00:21;9.00;93.90
4425;DHT22;2225;53.568;13.266;2024-01-27T01:02:48;9.00;93.90
4425;DHT22;2225;53.568;13.266;2024-01-27T01:05:15;9.10;94.00
4425;DHT22;2225;53.568;13.266;2024-01-27T01:07:42;9.10;94.00
4425;DHT22;2225;53.568;13.266;2024-01-27T01:10:09;9.00;94.00
4425;DHT22;2225;53.568;13.266;2024-01-27T01:12:36;9.00;94.00
4425;DHT22;2225;53.568;13.266;2024-01-27T01:15:03;9.00;94.10
4425;DHT22;2225;53.568;13.266;2024-01-27T01:17:30;9.00;94.10
4425;DHT22;2225;53.568;13.266;2024-01-27T01:19:57;9.00;94.10
4425;DHT22;2225;53.568;13.266;2024-01-27T01:22:24;8.90;94.10
4425;DHT22;2225;53.568;13.266;2024-01-27T01:24:51;9.00;94.20
4425;DHT22;2225;53.568;13.266;2024-01-27T01:27:18;9.00;94.10
4425;DHT22;2225;53.568;13.266;2024-01-27T01:29:47;8.90;94.20
4425;DHT22;2225;53.568;13.266;2024-01-27T01:32:14;8.90;94.20
4425;DHT22;2225;53.568;13.266;2024-01-27T01:34:42;8.90;94.30
4425;DHT22;2225;53.568;13.266;2024-01-27T01:37:09;8.90;94.40
4425;DHT22;2225;53.568;13.266;2024-01-27T01:39:36;8.80;94.40
4425;DHT22;2225;53.568;13.266;2024-01-27T01:42:03;8.80;94.50
4425;DHT22;2225;53.568;13.266;2024-01-27T01:44:30;8.80;94.50
4425;DHT22;2225;53.568;13.266;2024-01-27T01:47:00;8.80;94.50
4425;DHT22;2225;53.568;13.266;2024-01-27T01:49:28;8.70;94.60
4425;DHT22;2225;53.568;13.266;2024-01-27T01:51:55;8.70;94.70
4425;DHT22;2225;53.568;13.266;2024-01-27T01:54:22;8.70;94.80
4425;DHT22;2225;53.568;13.266;2024-01-27T01:56:55;8.70;94.90
4425;DHT22;2225;53.568;13.266;2024-01-27T01:59:25;8.70;95.00
4425;DHT22;2225;53.568;13.266;2024-01-27T02:01:52;8.60;95.00
4425;DHT22;2225;53.568;13.266;2024-01-27T02:04:19;8.60;95.10
4425;DHT22;2225;53.568;13.266;2024-01-27T02:06:46;8.60;95.10
4425;DHT22;2225;53.568;13.266;2024-01-27T02:09:14;8.60;95.10
4425;DHT22;2225;53.568;13.266;2024-01-27T02:11:40;8.60;95.10
4425;DHT22;2225;53.568;13.266;2024-01-27T02:14:08;8.60;95.10
4425;DHT22;2225;53.568;13.266;2024-01-27T02:16:35;8.60;95.10
4425;DHT22;2225;53.568;13.266;2024-01-27T02:19:02;8.50;95.10
4425;DHT22;2225;53.568;13.266;2024-01-27T02:21:29;8.50;95.30
4425;DHT22;2225;53.568;13.266;2024-01-27T02:23:56;8.50;95.20
4425;DHT22;2225;53.568;13.266;2024-01-27T02:26:23;8.50;95.30
4425;DHT22;2225;53.568;13.266;2024-01-27T02:28:50;8.50;95.30
4425;DHT22;2225;53.568;13.266;2024-01-27T02:31:16;8.50;95.30
4425;DHT22;2225;53.568;13.266;2024-01-27T02:33:43;8.40;95.40
4425;DHT22;2225;53.568;13.266;2024-01-27T02:36:11;8.40;95.40
4425;DHT22;2225;53.568;13.266;2024-01-27T02:38:38;8.40;95.40
4425;DHT22;2225;53.568;13.266;2024-01-27T02:41:05;8.40;95.40
4425;DHT22;2225;53.568;13.266;2024-01-27T02:43:31;8.50;95.40
4425;DHT22;2225;53.568;13.266;2024-01-27T02:45:58;8.50;95.40
4425;DHT22;2225;53.568;13.266;2024-01-27T02:48:25;8.50;95.40
4425;DHT22;2225;53.568;13.266;2024-01-27T02:50:52;8.50;95.40
4425;DHT22;2225;53.568;13.266;2024-01-27T02:53:19;8.50;95.40
4425;DHT22;2225;53.568;13.266;2024-01-27T02:55:46;8.50;95.50
4425;DHT22;2225;53.568;13.266;2024-01-27T02:58:13;8.50;95.50
4425;DHT22;2225;53.568;13.266;2024-01-27T03:00:40;8.60;95.50
4425;DHT22;2225;53.568;13.266;2024-01-27T03:03:07;8.60;95.50
4425;DHT22;2225;53.568;13.266;2024-01-27T03:05:34;8.60;95.40
4425;DHT22;2225;53.568;13.266;2024-01-27T03:08:01;8.70;95.40
4425;DHT22;2225;53.568;13.266;2024-01-27T03:10:28;8.70;95.30
4425;DHT22;2225;53.568;13.266;2024-01-27T03:12:55;8.80;95.30
4425;DHT22;2225;53.568;13.266;2024-01-27T03:15:23;8.80;95.30
4425;DHT22;2225;53.568;13.266;2024-01-27T03:17:50;8.80;95.20
4425;DHT22;2225;53.568;13.266;2024-01-27T03:20:17;8.80;95.20
4425;DHT22;2225;53.568;13.266;2024-01-27T03:22:44;8.90;95.30
4425;DHT22;2225;53.568;13.266;2024-01-27T03:25:11;8.90;95.30
4425;DHT22;2225;53.568;13.266;2024-01-27T03:27:37;8.90;95.40
4425;DHT22;2225;53.568;13.266;2024-01-27T03:30:06;8.90;95.30
4425;DHT22;2225;53.568;13.266;2024-01-27T03:32:34;8.90;95.30
4425;DHT22;2225;53.568;13.266;2024-01-27T03:35:01;8.90;95.30
4425;DHT22;2225;53.568;13.266;2024-01-27T03:37:28;8.90;95.40
4425;DHT22;2225;53.568;13.266;2024-01-27T03:39:55;8.90;95.30
4425;DHT22;2225;53.568;13.266;2024-01-27T03:42:22;8.90;95.40
4425;DHT22;2225;53.568;13.266;2024-01-27T03:44:51;8.90;95.40
4425;DHT22;2225;53.568;13.266;2024-01-27T03:47:18;8.90;95.40
4425;DHT22;2225;53.568;13.266;2024-01-27T03:49:46;8.90;95.40
4425;DHT22;2225;53.568;13.266;2024-01-27T03:52:14;8.90;95.40
4425;DHT22;2225;53.568;13.266;2024-01-27T03:54:41;9.00;95.50
4425;DHT22;2225;53.568;13.266;2024-01-27T03:57:08;9.00;95.50
4425;DHT22;2225;53.568;13.266;2024-01-27T03:59:35;9.00;95.50
4425;DHT22;2225;53.568;13.266;2024-01-27T04:02:02;9.00;95.50
4425;DHT22;2225;53.568;13.266;2024-01-27T04:04:29;9.00;95.50
4425;DHT22;2225;53.568;13.266;2024-01-27T04:06:56;9.00;95.50
4425;DHT22;2225;53.568;13.266;2024-01-27T04:09:23;9.00;95.50
4425;DHT22;2225;53.568;13.266;2024-01-27T04:11:51;9.00;95.50
4425;DHT22;2225;53.568;13.266;2024-01-27T04:14:18;9.00;95.50
4425;DHT22;2225;53.568;13.266;2024-01-27T04:16:45;9.00;95.50
4425;DHT22;2225;53.568;13.266;2024-01-27T04:19:12;9.00;95.50
4425;DHT22;2225;53.568;13.266;2024-01-27T04:21:39;9.00;95.50
4425;DHT22;2225;53.568;13.266;2024-01-27T04:24:06;9.00;95.50
4425;DHT22;2225;53.568;13.266;2024-01-27T04:26:33;9.10;95.50
4425;DHT22;2225;53.568;13.266;2024-01-27T04:29:00;9.10;95.50
4425;DHT22;2225;53.568;13.266;2024-01-27T04:31:27;9.10;95.50
4425;DHT22;2225;53.568;13.266;2024-01-27T04:33:54;9.10;95.50
4425;DHT22;2225;53.568;13.266;2024-01-27T04:36:27;9.10;95.50
4425;DHT22;2225;53.568;13.266;2024-01-27T04:38:56;9.10;95.50
4425;DHT22;2225;53.568;13.266;2024-01-27T04:41:23;9.10;95.50
4425;DHT22;2225;53.568;13.266;2024-01-27T04:43:50;9.10;95.60
4425;DHT22;2225;53.568;13.266;2024-01-27T04:46:17;9.10;95.60
4425;DHT22;2225;53.568;13.266;2024-01-27T04:48:44;9.10;95.70
4425;DHT22;2225;53.568;13.266;2024-01-27T04:51:11;9.10;95.70
4425;DHT22;2225;53.568;13.266;2024-01-27T04:53:38;9.10;95.70
4425;DHT22;2225;53.568;13.266;2024-01-27T04:56:05;9.10;95.70
4425;DHT22;2225;53.568;13.266;2024-01-27T04:58:36;9.10;95.70
4425;DHT22;2225;53.568;13.266;2024-01-27T05:01:03;9.10;95.70
4425;DHT22;2225;53.568;13.266;2024-01-27T05:03:30;9.10;95.80
4425;DHT22;2225;53.568;13.266;2024-01-27T05:05:57;9.10;95.80
4425;DHT22;2225;53.568;13.266;2024-01-27T05:08:24;9.10;95.80
4425;DHT22;2225;53.568;13.266;2024-01-27T05:10:51;9.10;95.70
4425;DHT22;2225;53.568;13.266;2024-01-27T05:13:22;9.10;95.70
4425;DHT22;2225;53.568;13.266;2024-01-27T05:15:49;9.10;95.70
4425;DHT22;2225;53.568;13.266;2024-01-27T05:18:16;9.10;95.70
4425;DHT22;2225;53.568;13.266;2024-01-27T05:20:44;9.10;95.80
4425;DHT22;2225;53.568;13.266;2024-01-27T05:23:10;9.10;95.70
4425;DHT22;2225;53.568;13.266;2024-01-27T05:25:38;9.10;95.80
4425;DHT22;2225;53.568;13.266;2024-01-27T05:28:06;9.10;95.80
4425;DHT22;2225;53.568;13.266;2024-01-27T05:30:33;9.20;95.80
4425;DHT22;2225;53.568;13.266;2024-01-27T05:33:00;9.20;95.80
4425;DHT22;2225;53.568;13.266;2024-01-27T05:35:27;9.10;95.90
4425;DHT22;2225;53.568;13.266;2024-01-27T05:37:54;9.10;96.00
4425;DHT22;2225;53.568;13.266;2024-01-27T05:40:21;9.10;96.00
4425;DHT22;2225;53.568;13.266;2024-01-27T05:42:48;9.10;96.10
4425;DHT22;2225;53.568;13.266;2024-01-27T05:45:15;9.20;96.10
4425;DHT22;2225;53.568;13.266;2024-01-27T05:47:42;9.10;96.10
4425;DHT22;2225;53.568;13.266;2024-01-27T05:50:10;9.20;96.20
4425;DHT22;2225;53.568;13.266;2024-01-27T05:52:37;9.20;96.20
4425;DHT22;2225;53.568;13.266;2024-01-27T05:55:04;9.20;96.20
4425;DHT22;2225;53.568;13.266;2024-01-27T05:57:33;9.20;96.20
4425;DHT22;2225;53.568;13.266;2024-01-27T06:00:00;9.20;96.20
4425;DHT22;2225;53.568;13.266;2024-01-27T06:02:30;9.20;96.20
4425;DHT22;2225;53.568;13.266;2024-01-27T06:04:57;9.20;96.20
4425;DHT22;2225;53.568;13.266;2024-01-27T06:07:24;9.20;96.30
4425;DHT22;2225;53.568;13.266;2024-01-27T06:09:51;9.30;96.20
4425;DHT22;2225;53.568;13.266;2024-01-27T06:12:20;9.30;96.20
4425;DHT22;2225;53.568;13.266;2024-01-27T06:14:47;9.30;96.20
4425;DHT22;2225;53.568;13.266;2024-01-27T06:17:14;9.40;96.20
4425;DHT22;2225;53.568;13.266;2024-01-27T06:19:42;9.30;96.00
4425;DHT22;2225;53.568;13.266;2024-01-27T06:22:10;9.40;95.90
4425;DHT22;2225;53.568;13.266;2024-01-27T06:24:43;9.30;95.80
4425;DHT22;2225;53.568;13.266;2024-01-27T06:27:11;9.40;95.90
4425;DHT22;2225;53.568;13.266;2024-01-27T06:29:38;9.30;95.80
4425;DHT22;2225;53.568;13.266;2024-01-27T06:32:06;9.30;95.70
4425;DHT22;2225;53.568;13.266;2024-01-27T06:34:38;9.30;95.70
4425;DHT22;2225;53.568;13.266;2024-01-27T06:37:05;9.30;95.60
4425;DHT22;2225;53.568;13.266;2024-01-27T06:39:32;9.30;95.60
4425;DHT22;2225;53.568;13.266;2024-01-27T06:41:59;9.30;95.60
4425;DHT22;2225;53.568;13.266;2024-01-27T06:44:26;9.30;95.70
4425;DHT22;2225;53.568;13.266;2024-01-27T06:46:53;9.30;95.70
4425;DHT22;2225;53.568;13.266;2024-01-27T06:49:20;9.30;95.80
4425;DHT22;2225;53.568;13.266;2024-01-27T06:51:47;9.30;95.80
4425;DHT22;2225;53.568;13.266;2024-01-27T06:54:14;9.30;95.80
4425;DHT22;2225;53.568;13.266;2024-01-27T06:56:41;9.40;95.90
4425;DHT22;2225;53.568;13.266;2024-01-27T06:59:08;9.40;95.90
4425;DHT22;2225;53.568;13.266;2024-01-27T07:01:35;9.40;95.90
4425;DHT22;2225;53.568;13.266;2024-01-27T07:04:02;9.40;95.90
4425;DHT22;2225;53.568;13.266;2024-01-27T07:06:29;9.40;95.90
4425;DHT22;2225;53.568;13.266;2024-01-27T07:08:56;9.40;95.90
4425;DHT22;2225;53.568;13.266;2024-01-27T07:11:23;9.50;96.00
4425;DHT22;2225;53.568;13.266;2024-01-27T07:13:50;9.50;96.00
4425;DHT22;2225;53.568;13.266;2024-01-27T07:16:17;9.50;95.90
4425;DHT22;2225;53.568;13.266;2024-01-27T07:18:44;9.50;95.90
4425;DHT22;2225;53.568;13.266;2024-01-27T07:21:15;9.50;95.80
4425;DHT22;2225;53.568;13.266;2024-01-27T07:23:44;9.60;95.90
4425;DHT22;2225;53.568;13.266;2024-01-27T07:26:11;9.60;95.90
4425;DHT22;2225;53.568;13.266;2024-01-27T07:28:38;9.60;96.00
4425;DHT22;2225;53.568;13.266;2024-01-27T07:31:05;9.60;96.00
4425;DHT22;2225;53.568;13.266;2024-01-27T07:33:32;9.60;96.00
4425;DHT22;2225;53.568;13.266;2024-01-27T07:35:59;9.60;96.00
4425;DHT22;2225;53.568;13.266;2024-01-27T07:38:26;9.60;96.00
4425;DHT22;2225;53.568;13.266;2024-01-27T07:40:53;9.60;96.00
4425;DHT22;2225;53.568;13.266;2024-01-27T07:43:20;9.70;96.00
4425;DHT22;2225;53.568;13.266;2024-01-27T07:45:47;9.70;96.00
4425;DHT22;2225;53.568;13.266;2024-01-27T07:48:14;9.60;96.00
4425;DHT22;2225;53.568;13.266;2024-01-27T07:50:41;9.60;96.00
4425;DHT22;2225;53.568;13.266;2024-01-27T07:53:12;9.60;96.10
4425;DHT22;2225;53.568;13.266;2024-01-27T07:55:39;9.60;96.20
4425;DHT22;2225;53.568;13.266;2024-01-27T07:58:06;9.60;96.20
4425;DHT22;2225;53.568;13.266;2024-01-27T08:00:33;9.70;96.20
4425;DHT22;2225;53.568;13.266;2024-01-27T08:03:00;9.70;96.20
4425;DHT22;2225;53.568;13.266;2024-01-27T08:05:27;9.70;96.20
4425;DHT22;2225;53.568;13.266;2024-01-27T08:07:54;9.80;96.20
4425;DHT22;2225;53.568;13.266;2024-01-27T08:10:22;9.80;96.50
4425;DHT22;2225;53.568;13.266;2024-01-27T08:12:49;9.80;96.10
4425;DHT22;2225;53.568;13.266;2024-01-27T08:15:16;9.90;96.10
4425;DHT22;2225;53.568;13.266;2024-01-27T08:17:43;9.90;96.10
4425;DHT22;2225;53.568;13.266;2024-01-27T08:20:10;9.90;96.10
4425;DHT22;2225;53.568;13.266;2024-01-27T08:22:37;10.00;96.10
4425;DHT22;2225;53.568;13.266;2024-01-27T08:25:04;10.00;96.10
4425;DHT22;2225;53.568;13.266;2024-01-27T08:27:32;10.00;96.00
4425;DHT22;2225;53.568;13.266;2024-01-27T08:29:59;10.10;96.00
4425;DHT22;2225;53.568;13.266;2024-01-27T08:32:26;10.10;96.00
4425;DHT22;2225;53.568;13.266;2024-01-27T08:34:53;10.20;96.00
4425;DHT22;2225;53.568;13.266;2024-01-27T08:37:20;10.10;95.90
4425;DHT22;2225;53.568;13.266;2024-01-27T08:39:47;10.20;95.90
4425;DHT22;2225;53.568;13.266;2024-01-27T08:42:14;10.20;95.90
4425;DHT22;2225;53.568;13.266;2024-01-27T08:44:41;10.20;95.90
4425;DHT22;2225;53.568;13.266;2024-01-27T08:47:08;10.30;95.80
4425;DHT22;2225;53.568;13.266;2024-01-27T08:49:35;10.30;95.80
4425;DHT22;2225;53.568;13.266;2024-01-27T08:52:03;10.30;95.70
4425;DHT22;2225;53.568;13.266;2024-01-27T08:54:30;10.30;95.80
4425;DHT22;2225;53.568;13.266;2024-01-27T08:56:57;10.30;95.70
4425;DHT22;2225;53.568;13.266;2024-01-27T08:59:24;10.30;95.70
4425;DHT22;2225;53.568;13.266;2024-01-27T09:01:51;10.30;95.80
4425;DHT22;2225;53.568;13.266;2024-01-27T09:04:18;10.40;95.70
4425;DHT22;2225;53.568;13.266;2024-01-27T09:06:45;10.40;95.70
4425;DHT22;2225;53.568;13.266;2024-01-27T09:09:12;10.40;95.70
4425;DHT22;2225;53.568;13.266;2024-01-27T09:11:40;10.40;95.70
4425;DHT22;2225;53.568;13.266;2024-01-27T09:14:07;10.50;95.70
4425;DHT22;2225;53.568;13.266;2024-01-27T09:16:34;10.50;95.60
4425;DHT22;2225;53.568;13.266;2024-01-27T09:19:01;10.50;95.60
4425;DHT22;2225;53.568;13.266;2024-01-27T09:21:29;10.50;95.60
4425;DHT22;2225;53.568;13.266;2024-01-27T09:23:58;10.50;95.50
4425;DHT22;2225;53.568;13.266;2024-01-27T09:26:25;10.60;95.50
4425;DHT22;2225;53.568;13.266;2024-01-27T09:28:52;10.60;95.40
4425;DHT22;2225;53.568;13.266;2024-01-27T09:31:22;10.60;95.40
4425;DHT22;2225;53.568;13.266;2024-01-27T09:33:51;10.60;95.40
4425;DHT22;2225;53.568;13.266;2024-01-27T09:36:19;10.60;95.40
4425;DHT22;2225;53.568;13.266;2024-01-27T09:38:47;10.70;95.40
4425;DHT22;2225;53.568;13.266;2024-01-27T09:41:14;10.70;95.40
4425;DHT22;2225;53.568;13.266;2024-01-27T09:43:43;10.70;95.40
4425;DHT22;2225;53.568;13.266;2024-01-27T09:46:15;10.70;95.30
4425;DHT22;2225;53.568;13.266;2024-01-27T09:48:42;10.70;95.30
4425;DHT22;2225;53.568;13.266;2024-01-27T09:51:10;10.70;95.10
4425;DHT22;2225;53.568;13.266;2024-01-27T09:53:38;10.70;95.30
4425;DHT22;2225;53.568;13.266;2024-01-27T09:56:06;10.70;95.20
4425;DHT22;2225;53.568;13.266;2024-01-27T09:58:33;10.80;95.20
4425;DHT22;2225;53.568;13.266;2024-01-27T10:01:01;10.80;95.20
4425;DHT22;2225;53.568;13.266;2024-01-27T10:03:29;10.80;95.20
4425;DHT22;2225;53.568;13.266;2024-01-27T10:05:57;10.80;95.20
4425;DHT22;2225;53.568;13.266;2024-01-27T10:08:24;10.90;95.30
4425;DHT22;2225;53.568;13.266;2024-01-27T10:10:55;10.80;95.10
4425;DHT22;2225;53.568;13.266;2024-01-27T10:13:22;10.90;95.20
4425;DHT22;2225;53.568;13.266;2024-01-27T10:16:08;10.80;95.10
4425;DHT22;2225;53.568;13.266;2024-01-27T10:18:36;10.80;95.20
4425;DHT22;2225;53.568;13.266;2024-01-27T10:21:13;10.80;95.20
4425;DHT22;2225;53.568;13.266;2024-01-27T10:23:40;10.90;95.30
4425;DHT22;2225;53.568;13.266;2024-01-27T10:26:11;10.80;95.10
4425;DHT22;2225;53.568;13.266;2024-01-27T10:28:38;10.80;95.10
4425;DHT22;2225;53.568;13.266;2024-01-27T10:31:12;10.80;95.20
4425;DHT22;2225;53.568;13.266;2024-01-27T10:33:39;10.80;95.30
4425;DHT22;2225;53.568;13.266;2024-01-27T10:36:07;10.80;95.30
4425;DHT22;2225;53.568;13.266;2024-01-27T10:38:37;10.80;95.30
4425;DHT22;2225;53.568;13.266;2024-01-27T10:41:08;10.90;95.40
4425;DHT22;2225;53.568;13.266;2024-01-27T10:43:39;10.90;95.30
4425;DHT22;2225;53.568;13.266;2024-01-27T10:46:08;10.90;95.30
4425;DHT22;2225;53.568;13.266;2024-01-27T10:48:35;10.90;95.30
4425;DHT22;2225;53.568;13.266;2024-01-27T10:51:08;10.90;95.20
4425;DHT22;2225;53.568;13.266;2024-01-27T10:53:36;11.00;95.30
4425;DHT22;2225;53.568;13.266;2024-01-27T10:56:04;11.00;95.40
4425;DHT22;2225;53.568;13.266;2024-01-27T10:58:36;11.00;95.30
4425;DHT22;2225;53.568;13.266;2024-01-27T11:01:11;11.00;95.10
4425;DHT22;2225;53.568;13.266;2024-01-27T11:03:39;11.10;95.10
4425;DHT22;2225;53.568;13.266;2024-01-27T11:06:07;11.10;95.50
4425;DHT22;2225;53.568;13.266;2024-01-27T11:08:35;11.10;95.10
4425;DHT22;2225;53.568;13.266;2024-01-27T11:11:08;11.10;95.10
4425;DHT22;2225;53.568;13.266;2024-01-27T11:13:36;11.10;95.10
4425;DHT22;2225;53.568;13.266;2024-01-27T11:16:04;11.10;95.10
4425;DHT22;2225;53.568;13.266;2024-01-27T11:18:31;11.20;95.20
4425;DHT22;2225;53.568;13.266;2024-01-27T11:20:59;11.20;95.10
4425;DHT22;2225;53.568;13.266;2024-01-27T11:23:33;11.20;95.00
4425;DHT22;2225;53.568;13.266;2024-01-27T11:26:03;11.20;95.00
4425;DHT22;2225;53.568;13.266;2024-01-27T11:28:31;11.30;95.10
4425;DHT22;2225;53.568;13.266;2024-01-27T11:30:58;11.30;95.00
4425;DHT22;2225;53.568;13.266;2024-01-27T11:33:29;11.40;95.10
4425;DHT22;2225;53.568;13.266;2024-01-27T11:36:04;11.40;95.00
4425;DHT22;2225;53.568;13.266;2024-01-27T11:38:32;11.50;94.90
4425;DHT22;2225;53.568;13.266;2024-01-27T11:41:00;11.60;94.90
4425;DHT22;2225;53.568;13.266;2024-01-27T11:43:27;11.50;94.90
4425;DHT22;2225;53.568;13.266;2024-01-27T11:45:56;11.60;94.60
4425;DHT22;2225;53.568;13.266;2024-01-27T11:48:24;11.60;94.60
4425;DHT22;2225;53.568;13.266;2024-01-27T11:51:10;11.60;94.50
4425;DHT22;2225;53.568;13.266;2024-01-27T11:53:38;11.70;94.50
4425;DHT22;2225;53.568;13.266;2024-01-27T11:56:05;11.70;94.60
4425;DHT22;2225;53.568;13.266;2024-01-27T11:58:33;11.70;94.40
4425;DHT22;2225;53.568;13.266;2024-01-27T12:01:00;11.70;94.40
4425;DHT22;2225;53.568;13.266;2024-01-27T12:03:27;11.70;94.20
4425;DHT22;2225;53.568;13.266;2024-01-27T12:05:55;11.70;94.30
4425;DHT22;2225;53.568;13.266;2024-01-27T12:08:23;11.70;94.30
4425;DHT22;2225;53.568;13.266;2024-01-27T12:10:50;11.80;94.40
4425;DHT22;2225;53.568;13.266;2024-01-27T12:13:17;11.80;94.20
4425;DHT22;2225;53.568;13.266;2024-01-27T12:15:44;11.80;94.30
4425;DHT22;2225;53.568;13.266;2024-01-27T12:18:11;11.80;94.20
4425;DHT22;2225;53.568;13.266;2024-01-27T12:20:40;11.80;94.20
4425;DHT22;2225;53.568;13.266;2024-01-27T12:23:07;11.80;94.10
4425;DHT22;2225;53.568;13.266;2024-01-27T12:25:34;11.90;94.10
4425;DHT22;2225;53.568;13.266;2024-01-27T12:28:05;11.90;94.00
4425;DHT22;2225;53.568;13.266;2024-01-27T12:30:34;11.90;93.90
4425;DHT22;2225;53.568;13.266;2024-01-27T12:33:01;11.90;93.90
4425;DHT22;2225;53.568;13.266;2024-01-27T12:35:36;11.90;94.00
4425;DHT22;2225;53.568;13.266;2024-01-27T12:38:05;11.90;93.90
4425;DHT22;2225;53.568;13.266;2024-01-27T12:40:32;11.90;93.90
4425;DHT22;2225;53.568;13.266;2024-01-27T12:42:59;11.90;93.90
4425;DHT22;2225;53.568;13.266;2024-01-27T12:45:26;11.90;94.00
4425;DHT22;2225;53.568;13.266;2024-01-27T12:47:56;11.90;93.90
4425;DHT22;2225;53.568;13.266;2024-01-27T12:50:23;12.00;93.90
4425;DHT22;2225;53.568;13.266;2024-01-27T12:52:50;12.00;93.90
4425;DHT22;2225;53.568;13.266;2024-01-27T12:55:17;11.90;93.70
4425;DHT22;2225;53.568;13.266;2024-01-27T12:57:45;12.00;93.90
4425;DHT22;2225;53.568;13.266;2024-01-27T13:00:13;12.00;93.80
4425;DHT22;2225;53.568;13.266;2024-01-27T13:02:41;12.00;93.90
4425;DHT22;2225;53.568;13.266;2024-01-27T13:05:09;12.10;93.80
4425;DHT22;2225;53.568;13.266;2024-01-27T13:07:36;12.20;93.70
4425;DHT22;2225;53.568;13.266;2024-01-27T13:10:04;12.10;93.60
4425;DHT22;2225;53.568;13.266;2024-01-27T13:12:31;12.20;93.60
4425;DHT22;2225;53.568;13.266;2024-01-27T13:14:58;12.20;93.50
4425;DHT22;2225;53.568;13.266;2024-01-27T13:17:25;12.20;93.40
4425;DHT22;2225;53.568;13.266;2024-01-27T13:19:52;12.20;93.30
4425;DHT22;2225;53.568;13.266;2024-01-27T13:22:20;12.20;93.30
4425;DHT22;2225;53.568;13.266;2024-01-27T13:24:50;12.20;93.30
4425;DHT22;2225;53.568;13.266;2024-01-27T13:27:17;12.20;93.20
4425;DHT22;2225;53.568;13.266;2024-01-27T13:29:45;12.20;93.20
4425;DHT22;2225;53.568;13.266;2024-01-27T13:32:12;12.20;93.10
4425;DHT22;2225;53.568;13.266;2024-01-27T13:34:39;12.10;93.10
4425;DHT22;2225;53.568;13.266;2024-01-27T13:37:06;12.10;93.30
4425;DHT22;2225;53.568;13.266;2024-01-27T13:39:33;12.20;93.40
4425;DHT22;2225;53.568;13.266;2024-01-27T13:42:00;12.10;93.10
4425;DHT22;2225;53.568;13.266;2024-01-27T13:44:27;12.20;93.10
4425;DHT22;2225;53.568;13.266;2024-01-27T13:46:56;12.10;93.00
4425;DHT22;2225;53.568;13.266;2024-01-27T13:49:27;12.10;93.10
4425;DHT22;2225;53.568;13.266;2024-01-27T13:51:54;12.10;92.90
4425;DHT22;2225;53.568;13.266;2024-01-27T13:54:21;12.10;92.90
4425;DHT22;2225;53.568;13.266;2024-01-27T13:56:48;12.10;93.10
4425;DHT22;2225;53.568;13.266;2024-01-27T13:59:15;12.10;93.10
4425;DHT22;2225;53.568;13.266;2024-01-27T14:01:42;12.10;93.10
4425;DHT22;2225;53.568;13.266;2024-01-27T14:04:09;12.10;93.00
4425;DHT22;2225;53.568;13.266;2024-01-27T14:06:36;12.10;92.90
4425;DHT22;2225;53.568;13.266;2024-01-27T14:09:03;12.10;92.70
4425;DHT22;2225;53.568;13.266;2024-01-27T14:11:30;12.10;92.90
4425;DHT22;2225;53.568;13.266;2024-01-27T14:13:57;12.00;92.90
4425;DHT22;2225;53.568;13.266;2024-01-27T14:16:24;12.00;93.00
4425;DHT22;2225;53.568;13.266;2024-01-27T14:18:51;12.00;93.10
4425;DHT22;2225;53.568;13.266;2024-01-27T14:21:18;12.00;93.20
4425;DHT22;2225;53.568;13.266;2024-01-27T14:23:45;11.90;93.20
4425;DHT22;2225;53.568;13.266;2024-01-27T14:26:12;11.90;93.20
4425;DHT22;2225;53.568;13.266;2024-01-27T14:28:42;11.90;93.30
4425;DHT22;2225;53.568;13.266;2024-01-27T14:31:10;11.90;93.40
4425;DHT22;2225;53.568;13.266;2024-01-27T14:33:40;11.90;93.20
4425;DHT22;2225;53.568;13.266;2024-01-27T14:36:08;11.90;93.20
4425;DHT22;2225;53.568;13.266;2024-01-27T14:38:35;11.90;93.20
4425;DHT22;2225;53.568;13.266;2024-01-27T14:41:02;11.90;93.10
4425;DHT22;2225;53.568;13.266;2024-01-27T14:43:30;11.80;93.10
4425;DHT22;2225;53.568;13.266;2024-01-27T14:45:57;11.80;93.00
4425;DHT22;2225;53.568;13.266;2024-01-27T14:48:24;11.80;93.00
4425;DHT22;2225;53.568;13.266;2024-01-27T14:50:52;11.80;93.00
4425;DHT22;2225;53.568;13.266;2024-01-27T14:53:25;11.70;93.00
4425;DHT22;2225;53.568;13.266;2024-01-27T14:55:52;11.70;93.10
4425;DHT22;2225;53.568;13.266;2024-01-27T14:58:21;11.70;93.20
4425;DHT22;2225;53.568;13.266;2024-01-27T15:00:48;11.70;93.30
4425;DHT22;2225;53.568;13.266;2024-01-27T15:03:22;11.70;93.30
4425;DHT22;2225;53.568;13.266;2024-01-27T15:05:52;11.70;93.40
4425;DHT22;2225;53.568;13.266;2024-01-27T15:08:21;11.70;93.30
4425;DHT22;2225;53.568;13.266;2024-01-27T15:10:48;11.70;93.40
4425;DHT22;2225;53.568;13.266;2024-01-27T15:13:15;11.70;93.40
4425;DHT22;2225;53.568;13.266;2024-01-27T15:15:46;11.70;93.40
4425;DHT22;2225;53.568;13.266;2024-01-27T15:18:13;11.70;93.50
4425;DHT22;2225;53.568;13.266;2024-01-27T15:20:45;11.70;93.40
4425;DHT22;2225;53.568;13.266;2024-01-27T15:23:12;11.70;93.30
4425;DHT22;2225;53.568;13.266;2024-01-27T15:25:39;11.70;93.30
4425;DHT22;2225;53.568;13.266;2024-01-27T15:28:07;11.60;93.20
4425;DHT22;2225;53.568;13.266;2024-01-27T15:30:34;11.60;93.20
4425;DHT22;2225;53.568;13.266;2024-01-27T15:33:01;11.60;93.30
4425;DHT22;2225;53.568;13.266;2024-01-27T15:35:29;11.50;93.30
4425;DHT22;2225;53.568;13.266;2024-01-27T15:37:59;11.40;93.40
4425;DHT22;2225;53.568;13.266;2024-01-27T15:40:26;11.30;93.40
4425;DHT22;2225;53.568;13.266;2024-01-27T15:42:53;11.20;93.50
4425;DHT22;2225;53.568;13.266;2024-01-27T15:45:21;11.20;93.60
4425;DHT22;2225;53.568;13.266;2024-01-27T15:47:48;11.10;93.70
4425;DHT22;2225;53.568;13.266;2024-01-27T15:50:16;11.00;93.80
4425;DHT22;2225;53.568;13.266;2024-01-27T15:52:45;10.90;93.90
4425;DHT22;2225;53.568;13.266;2024-01-27T15:55:12;10.90;94.00
4425;DHT22;2225;53.568;13.266;2024-01-27T15:57:39;10.80;94.00